Terminal Aerodrome Forecast
Issued by NWS

Home | Current Version | Previous Version | Text Only | Print | Product List | Glossary Off
Versions: 1 2 3 4 5 6 7 8 9 10 11 12 13 14 15 16 17 18 19 20 21

000
FTUS42 KMHX 151200 AAA
TAFOAJ
TAF AMD
KOAJ 151247Z 1513/1612 17012G25KT P6SM SHRA BKN011 OVC020
     FM151400 19016G25KT P6SM BKN025
     FM152000 20018G28KT P6SM SHRA VCTS SCT007 BKN025CB
     FM160200 34018G26KT P6SM -RA SCT007 BKN015
     FM160600 36014G22KT P6SM SCT025
      AMD LTD TO CLD VIS AND WIND=

USA.gov is the U.S. government's official web portal to all federal, state and local government web resources and services.